sensor_id;sensor_type;location;lat;lon;timestamp;temperature;humidity
12557;DHT22;6344;49.932;8.308;2023-12-20T00:01:07;5.00;99.90
12557;DHT22;6344;49.932;8.308;2023-12-20T00:03:34;5.00;99.90
12557;DHT22;6344;49.932;8.308;2023-12-20T00:06:00;4.90;99.90
12557;DHT22;6344;49.932;8.308;2023-12-20T00:08:27;5.00;99.90
12557;DHT22;6344;49.932;8.308;2023-12-20T00:10:54;5.00;99.90
12557;DHT22;6344;49.932;8.308;2023-12-20T00:13:20;4.90;99.90
12557;DHT22;6344;49.932;8.308;2023-12-20T00:15:47;4.90;99.90
12557;DHT22;6344;49.932;8.308;2023-12-20T00:18:15;4.90;99.90
12557;DHT22;6344;49.932;8.308;2023-12-20T00:20:42;4.90;99.90
12557;DHT22;6344;49.932;8.308;2023-12-20T00:23:08;4.90;99.90
12557;DHT22;6344;49.932;8.308;2023-12-20T00:25:35;4.90;99.90
12557;DHT22;6344;49.932;8.308;2023-12-20T00:28:02;4.90;99.90
12557;DHT22;6344;49.932;8.308;2023-12-20T00:30:29;4.90;99.90
12557;DHT22;6344;49.932;8.308;2023-12-20T00:32:55;4.90;99.90
12557;DHT22;6344;49.932;8.308;2023-12-20T00:35:23;4.90;99.90
12557;DHT22;6344;49.932;8.308;2023-12-20T00:37:50;4.90;99.90
12557;DHT22;6344;49.932;8.308;2023-12-20T00:40:17;4.90;99.90
12557;DHT22;6344;49.932;8.308;2023-12-20T00:42:43;4.90;99.90
12557;DHT22;6344;49.932;8.308;2023-12-20T00:45:12;4.90;99.90
12557;DHT22;6344;49.932;8.308;2023-12-20T00:47:39;4.90;99.90
12557;DHT22;6344;49.932;8.308;2023-12-20T00:50:07;4.90;99.90
12557;DHT22;6344;49.932;8.308;2023-12-20T00:52:35;4.90;99.90
12557;DHT22;6344;49.932;8.308;2023-12-20T00:55:01;4.90;99.90
12557;DHT22;6344;49.932;8.308;2023-12-20T00:57:29;4.90;99.90
12557;DHT22;6344;49.932;8.308;2023-12-20T00:59:56;4.90;99.90
12557;DHT22;6344;49.932;8.308;2023-12-20T01:02:23;4.90;99.90
12557;DHT22;6344;49.932;8.308;2023-12-20T01:04:49;4.90;99.90
12557;DHT22;6344;49.932;8.308;2023-12-20T01:07:16;4.90;99.90
12557;DHT22;6344;49.932;8.308;2023-12-20T01:09:44;4.90;99.90
12557;DHT22;6344;49.932;8.308;2023-12-20T01:12:11;4.90;99.90
12557;DHT22;6344;49.932;8.308;2023-12-20T01:14:38;4.90;99.90
12557;DHT22;6344;49.932;8.308;2023-12-20T01:17:04;4.90;99.90
12557;DHT22;6344;49.932;8.308;2023-12-20T01:19:31;4.90;99.90
12557;DHT22;6344;49.932;8.308;2023-12-20T01:21:58;4.90;99.90
12557;DHT22;6344;49.932;8.308;2023-12-20T01:24:24;4.90;99.90
12557;DHT22;6344;49.932;8.308;2023-12-20T01:26:52;4.80;99.90
12557;DHT22;6344;49.932;8.308;2023-12-20T01:29:19;4.80;99.90
12557;DHT22;6344;49.932;8.308;2023-12-20T01:31:45;4.80;99.90
12557;DHT22;6344;49.932;8.308;2023-12-20T01:34:12;4.90;99.90
12557;DHT22;6344;49.932;8.308;2023-12-20T01:36:39;4.90;99.90
12557;DHT22;6344;49.932;8.308;2023-12-20T01:39:05;4.90;99.90
12557;DHT22;6344;49.932;8.308;2023-12-20T01:41:32;4.90;99.90
12557;DHT22;6344;49.932;8.308;2023-12-20T01:44:00;4.90;99.90
12557;DHT22;6344;49.932;8.308;2023-12-20T01:46:27;4.90;99.90
12557;DHT22;6344;49.932;8.308;2023-12-20T01:48:53;5.00;99.90
12557;DHT22;6344;49.932;8.308;2023-12-20T01:51:20;5.00;99.90
12557;DHT22;6344;49.932;8.308;2023-12-20T01:53:48;5.00;99.90
12557;DHT22;6344;49.932;8.308;2023-12-20T01:56:15;5.00;99.90
12557;DHT22;6344;49.932;8.308;2023-12-20T01:58:44;5.00;99.90
12557;DHT22;6344;49.932;8.308;2023-12-20T02:01:12;5.00;99.90
12557;DHT22;6344;49.932;8.308;2023-12-20T02:03:40;5.00;99.90
12557;DHT22;6344;49.932;8.308;2023-12-20T02:06:07;5.00;99.90
12557;DHT22;6344;49.932;8.308;2023-12-20T02:08:34;5.00;99.90
12557;DHT22;6344;49.932;8.308;2023-12-20T02:11:01;5.00;99.90
12557;DHT22;6344;49.932;8.308;2023-12-20T02:13:28;5.00;99.90
12557;DHT22;6344;49.932;8.308;2023-12-20T02:15:54;5.00;99.90
12557;DHT22;6344;49.932;8.308;2023-12-20T02:18:23;5.00;99.90
12557;DHT22;6344;49.932;8.308;2023-12-20T02:20:49;5.00;99.90
12557;DHT22;6344;49.932;8.308;2023-12-20T02:23:17;5.00;99.90
12557;DHT22;6344;49.932;8.308;2023-12-20T02:25:44;5.00;99.90
12557;DHT22;6344;49.932;8.308;2023-12-20T02:28:11;5.00;99.90
12557;DHT22;6344;49.932;8.308;2023-12-20T02:30:37;5.00;99.90
12557;DHT22;6344;49.932;8.308;2023-12-20T02:33:08;5.00;99.90
12557;DHT22;6344;49.932;8.308;2023-12-20T02:35:36;5.00;99.90
12557;DHT22;6344;49.932;8.308;2023-12-20T02:38:03;5.00;99.90
12557;DHT22;6344;49.932;8.308;2023-12-20T02:40:31;5.00;99.90
12557;DHT22;6344;49.932;8.308;2023-12-20T02:42:58;4.90;99.90
12557;DHT22;6344;49.932;8.308;2023-12-20T02:45:25;4.90;99.90
12557;DHT22;6344;49.932;8.308;2023-12-20T02:47:51;5.00;99.90
12557;DHT22;6344;49.932;8.308;2023-12-20T02:50:18;5.00;99.90
12557;DHT22;6344;49.932;8.308;2023-12-20T02:52:45;5.00;99.90
12557;DHT22;6344;49.932;8.308;2023-12-20T02:55:12;4.90;99.90
12557;DHT22;6344;49.932;8.308;2023-12-20T02:57:40;5.00;99.90
12557;DHT22;6344;49.932;8.308;2023-12-20T03:00:08;5.00;99.90
12557;DHT22;6344;49.932;8.308;2023-12-20T03:02:35;5.00;99.90
12557;DHT22;6344;49.932;8.308;2023-12-20T03:05:01;5.10;99.90
12557;DHT22;6344;49.932;8.308;2023-12-20T03:07:28;5.10;99.90
12557;DHT22;6344;49.932;8.308;2023-12-20T03:09:55;5.20;99.90
12557;DHT22;6344;49.932;8.308;2023-12-20T03:12:21;5.20;99.90
12557;DHT22;6344;49.932;8.308;2023-12-20T03:14:49;5.20;99.90
12557;DHT22;6344;49.932;8.308;2023-12-20T03:17:16;5.30;99.90
12557;DHT22;6344;49.932;8.308;2023-12-20T03:19:43;5.30;99.90
12557;DHT22;6344;49.932;8.308;2023-12-20T03:22:09;5.30;99.90
12557;DHT22;6344;49.932;8.308;2023-12-20T03:24:36;5.20;99.90
12557;DHT22;6344;49.932;8.308;2023-12-20T03:27:03;5.20;99.90
12557;DHT22;6344;49.932;8.308;2023-12-20T03:29:30;5.20;99.90
12557;DHT22;6344;49.932;8.308;2023-12-20T03:31:58;5.30;99.90
12557;DHT22;6344;49.932;8.308;2023-12-20T03:34:24;5.30;99.90
12557;DHT22;6344;49.932;8.308;2023-12-20T03:36:51;5.30;99.90
12557;DHT22;6344;49.932;8.308;2023-12-20T03:39:18;5.30;99.90
12557;DHT22;6344;49.932;8.308;2023-12-20T03:41:44;5.30;99.90
12557;DHT22;6344;49.932;8.308;2023-12-20T03:44:11;5.30;99.90
12557;DHT22;6344;49.932;8.308;2023-12-20T03:46:38;5.30;99.90
12557;DHT22;6344;49.932;8.308;2023-12-20T03:49:06;5.30;99.90
12557;DHT22;6344;49.932;8.308;2023-12-20T03:51:32;5.30;99.90
12557;DHT22;6344;49.932;8.308;2023-12-20T03:53:59;5.30;99.90
12557;DHT22;6344;49.932;8.308;2023-12-20T03:56:25;5.30;99.90
12557;DHT22;6344;49.932;8.308;2023-12-20T03:58:52;5.40;99.90
12557;DHT22;6344;49.932;8.308;2023-12-20T04:01:19;5.40;99.90
12557;DHT22;6344;49.932;8.308;2023-12-20T04:03:45;5.40;99.90
12557;DHT22;6344;49.932;8.308;2023-12-20T04:06:17;5.40;99.90
12557;DHT22;6344;49.932;8.308;2023-12-20T04:08:44;5.40;99.90
12557;DHT22;6344;49.932;8.308;2023-12-20T04:11:11;5.40;99.90
12557;DHT22;6344;49.932;8.308;2023-12-20T04:13:37;5.50;99.90
12557;DHT22;6344;49.932;8.308;2023-12-20T04:16:04;5.40;99.90
12557;DHT22;6344;49.932;8.308;2023-12-20T04:18:31;5.40;99.90
12557;DHT22;6344;49.932;8.308;2023-12-20T04:20:58;5.50;99.90
12557;DHT22;6344;49.932;8.308;2023-12-20T04:23:26;5.50;99.90
12557;DHT22;6344;49.932;8.308;2023-12-20T04:25:54;5.40;99.90
12557;DHT22;6344;49.932;8.308;2023-12-20T04:28:20;5.30;99.90
12557;DHT22;6344;49.932;8.308;2023-12-20T04:30:47;5.20;99.90
12557;DHT22;6344;49.932;8.308;2023-12-20T04:33:13;5.10;99.90
12557;DHT22;6344;49.932;8.308;2023-12-20T04:35:40;5.10;99.90
12557;DHT22;6344;49.932;8.308;2023-12-20T04:38:08;5.00;99.90
12557;DHT22;6344;49.932;8.308;2023-12-20T04:40:36;5.00;99.90
12557;DHT22;6344;49.932;8.308;2023-12-20T04:43:03;5.10;99.90
12557;DHT22;6344;49.932;8.308;2023-12-20T04:45:29;5.10;99.90
12557;DHT22;6344;49.932;8.308;2023-12-20T04:47:56;5.10;99.90
12557;DHT22;6344;49.932;8.308;2023-12-20T04:50:23;5.10;99.90
12557;DHT22;6344;49.932;8.308;2023-12-20T04:52:50;5.10;99.90
12557;DHT22;6344;49.932;8.308;2023-12-20T04:55:16;5.00;99.90
12557;DHT22;6344;49.932;8.308;2023-12-20T04:57:44;5.10;99.90
12557;DHT22;6344;49.932;8.308;2023-12-20T05:00:12;5.10;99.90
12557;DHT22;6344;49.932;8.308;2023-12-20T05:02:40;5.20;99.90
12557;DHT22;6344;49.932;8.308;2023-12-20T05:05:08;5.20;99.90
12557;DHT22;6344;49.932;8.308;2023-12-20T05:07:34;5.20;99.90
12557;DHT22;6344;49.932;8.308;2023-12-20T05:10:01;5.10;99.90
12557;DHT22;6344;49.932;8.308;2023-12-20T05:12:29;5.10;99.90
12557;DHT22;6344;49.932;8.308;2023-12-20T05:14:58;5.10;99.90
12557;DHT22;6344;49.932;8.308;2023-12-20T05:17:25;5.10;99.90
12557;DHT22;6344;49.932;8.308;2023-12-20T05:19:51;5.10;99.90
12557;DHT22;6344;49.932;8.308;2023-12-20T05:22:19;5.10;99.90
12557;DHT22;6344;49.932;8.308;2023-12-20T05:24:46;5.00;99.90
12557;DHT22;6344;49.932;8.308;2023-12-20T05:27:12;5.10;99.90
12557;DHT22;6344;49.932;8.308;2023-12-20T05:29:39;5.00;99.90
12557;DHT22;6344;49.932;8.308;2023-12-20T05:32:07;4.90;99.90
12557;DHT22;6344;49.932;8.308;2023-12-20T05:34:33;4.90;99.90
12557;DHT22;6344;49.932;8.308;2023-12-20T05:37:00;4.80;99.90
12557;DHT22;6344;49.932;8.308;2023-12-20T05:39:28;4.80;99.90
12557;DHT22;6344;49.932;8.308;2023-12-20T05:41:56;4.90;99.90
12557;DHT22;6344;49.932;8.308;2023-12-20T05:44:23;4.90;99.90
12557;DHT22;6344;49.932;8.308;2023-12-20T05:46:50;4.90;99.90
12557;DHT22;6344;49.932;8.308;2023-12-20T05:49:17;4.80;99.90
12557;DHT22;6344;49.932;8.308;2023-12-20T05:51:44;4.90;99.90
12557;DHT22;6344;49.932;8.308;2023-12-20T05:54:11;4.80;99.90
12557;DHT22;6344;49.932;8.308;2023-12-20T05:56:38;4.70;99.90
12557;DHT22;6344;49.932;8.308;2023-12-20T05:59:04;4.60;99.90
12557;DHT22;6344;49.932;8.308;2023-12-20T06:01:31;4.60;99.90
12557;DHT22;6344;49.932;8.308;2023-12-20T06:03:57;4.70;99.90
12557;DHT22;6344;49.932;8.308;2023-12-20T06:06:25;4.50;99.90
12557;DHT22;6344;49.932;8.308;2023-12-20T06:08:52;4.60;99.90
12557;DHT22;6344;49.932;8.308;2023-12-20T06:11:19;4.50;99.90
12557;DHT22;6344;49.932;8.308;2023-12-20T06:13:45;4.40;99.90
12557;DHT22;6344;49.932;8.308;2023-12-20T06:16:12;4.40;99.90
12557;DHT22;6344;49.932;8.308;2023-12-20T06:18:38;4.40;99.90
12557;DHT22;6344;49.932;8.308;2023-12-20T06:21:06;4.30;99.90
12557;DHT22;6344;49.932;8.308;2023-12-20T06:23:35;4.30;99.90
12557;DHT22;6344;49.932;8.308;2023-12-20T06:26:01;4.00;99.90
12557;DHT22;6344;49.932;8.308;2023-12-20T06:28:28;4.00;99.90
12557;DHT22;6344;49.932;8.308;2023-12-20T06:30:55;3.80;99.90
12557;DHT22;6344;49.932;8.308;2023-12-20T06:33:22;3.80;99.90
12557;DHT22;6344;49.932;8.308;2023-12-20T06:35:49;3.90;99.90
12557;DHT22;6344;49.932;8.308;2023-12-20T06:38:17;3.80;99.90
12557;DHT22;6344;49.932;8.308;2023-12-20T06:40:45;3.70;99.90
12557;DHT22;6344;49.932;8.308;2023-12-20T06:43:12;3.70;99.90
12557;DHT22;6344;49.932;8.308;2023-12-20T06:45:39;3.70;99.90
12557;DHT22;6344;49.932;8.308;2023-12-20T06:48:06;3.50;99.90
12557;DHT22;6344;49.932;8.308;2023-12-20T06:50:33;3.70;99.90
12557;DHT22;6344;49.932;8.308;2023-12-20T06:52:59;3.70;99.90
12557;DHT22;6344;49.932;8.308;2023-12-20T06:55:32;3.70;99.90
12557;DHT22;6344;49.932;8.308;2023-12-20T06:58:00;3.70;99.90
12557;DHT22;6344;49.932;8.308;2023-12-20T07:00:27;3.60;99.90
12557;DHT22;6344;49.932;8.308;2023-12-20T07:02:54;3.50;99.90
12557;DHT22;6344;49.932;8.308;2023-12-20T07:05:21;3.50;99.90
12557;DHT22;6344;49.932;8.308;2023-12-20T07:07:47;3.70;99.90
12557;DHT22;6344;49.932;8.308;2023-12-20T07:10:14;3.60;99.90
12557;DHT22;6344;49.932;8.308;2023-12-20T07:12:41;3.70;99.90
12557;DHT22;6344;49.932;8.308;2023-12-20T07:15:09;3.70;99.90
12557;DHT22;6344;49.932;8.308;2023-12-20T07:17:37;3.70;99.90
12557;DHT22;6344;49.932;8.308;2023-12-20T07:22:33;3.90;99.90
12557;DHT22;6344;49.932;8.308;2023-12-20T07:25:00;4.10;99.90
12557;DHT22;6344;49.932;8.308;2023-12-20T07:27:27;4.30;99.90
12557;DHT22;6344;49.932;8.308;2023-12-20T07:29:53;4.40;99.90
12557;DHT22;6344;49.932;8.308;2023-12-20T07:32:21;4.70;99.90
12557;DHT22;6344;49.932;8.308;2023-12-20T07:34:48;4.70;99.90
12557;DHT22;6344;49.932;8.308;2023-12-20T07:37:14;4.80;99.90
12557;DHT22;6344;49.932;8.308;2023-12-20T07:39:41;4.70;99.90
12557;DHT22;6344;49.932;8.308;2023-12-20T07:42:08;4.70;99.90
12557;DHT22;6344;49.932;8.308;2023-12-20T07:44:35;4.70;99.90
12557;DHT22;6344;49.932;8.308;2023-12-20T07:47:02;4.60;99.90
12557;DHT22;6344;49.932;8.308;2023-12-20T07:49:30;4.70;99.90
12557;DHT22;6344;49.932;8.308;2023-12-20T07:51:57;4.60;99.90
12557;DHT22;6344;49.932;8.308;2023-12-20T07:54:23;4.60;99.90
12557;DHT22;6344;49.932;8.308;2023-12-20T07:56:50;4.70;99.90
12557;DHT22;6344;49.932;8.308;2023-12-20T07:59:17;4.70;99.90
12557;DHT22;6344;49.932;8.308;2023-12-20T08:01:43;4.70;99.90
12557;DHT22;6344;49.932;8.308;2023-12-20T08:04:10;4.90;99.90
12557;DHT22;6344;49.932;8.308;2023-12-20T08:06:38;5.00;99.90
12557;DHT22;6344;49.932;8.308;2023-12-20T08:09:05;5.10;99.90
12557;DHT22;6344;49.932;8.308;2023-12-20T08:11:31;5.10;99.90
12557;DHT22;6344;49.932;8.308;2023-12-20T08:13:58;5.10;99.90
12557;DHT22;6344;49.932;8.308;2023-12-20T08:16:25;5.10;99.90
12557;DHT22;6344;49.932;8.308;2023-12-20T08:18:52;5.20;99.90
12557;DHT22;6344;49.932;8.308;2023-12-20T08:21:18;5.10;99.90
12557;DHT22;6344;49.932;8.308;2023-12-20T08:23:49;5.20;99.90
12557;DHT22;6344;49.932;8.308;2023-12-20T08:26:19;5.20;99.90
12557;DHT22;6344;49.932;8.308;2023-12-20T08:28:46;5.30;99.90
12557;DHT22;6344;49.932;8.308;2023-12-20T08:31:14;5.40;99.90
12557;DHT22;6344;49.932;8.308;2023-12-20T08:33:42;5.40;99.90
12557;DHT22;6344;49.932;8.308;2023-12-20T08:36:09;5.40;99.90
12557;DHT22;6344;49.932;8.308;2023-12-20T08:38:36;5.40;99.90
12557;DHT22;6344;49.932;8.308;2023-12-20T08:41:04;5.50;99.90
12557;DHT22;6344;49.932;8.308;2023-12-20T08:43:31;5.60;99.90
12557;DHT22;6344;49.932;8.308;2023-12-20T08:45:58;5.60;99.90
12557;DHT22;6344;49.932;8.308;2023-12-20T08:48:24;5.70;99.90
12557;DHT22;6344;49.932;8.308;2023-12-20T08:50:51;5.70;99.90
12557;DHT22;6344;49.932;8.308;2023-12-20T08:53:18;5.70;99.90
12557;DHT22;6344;49.932;8.308;2023-12-20T08:55:45;5.70;99.90
12557;DHT22;6344;49.932;8.308;2023-12-20T08:58:13;5.70;99.90
12557;DHT22;6344;49.932;8.308;2023-12-20T09:00:40;5.70;99.90
12557;DHT22;6344;49.932;8.308;2023-12-20T09:03:07;5.80;99.90
12557;DHT22;6344;49.932;8.308;2023-12-20T09:05:33;5.80;99.90
12557;DHT22;6344;49.932;8.308;2023-12-20T09:08:00;5.80;99.90
12557;DHT22;6344;49.932;8.308;2023-12-20T09:10:27;5.80;99.90
12557;DHT22;6344;49.932;8.308;2023-12-20T09:12:54;5.80;99.90
12557;DHT22;6344;49.932;8.308;2023-12-20T09:15:23;5.80;99.90
12557;DHT22;6344;49.932;8.308;2023-12-20T09:17:50;5.90;99.90
12557;DHT22;6344;49.932;8.308;2023-12-20T09:20:17;5.90;99.90
12557;DHT22;6344;49.932;8.308;2023-12-20T09:22:44;6.00;99.90
12557;DHT22;6344;49.932;8.308;2023-12-20T09:25:11;6.00;99.90
12557;DHT22;6344;49.932;8.308;2023-12-20T09:27:38;6.00;99.90
12557;DHT22;6344;49.932;8.308;2023-12-20T09:30:05;6.00;99.90
12557;DHT22;6344;49.932;8.308;2023-12-20T09:32:34;6.00;99.90
12557;DHT22;6344;49.932;8.308;2023-12-20T09:35:00;6.10;99.90
12557;DHT22;6344;49.932;8.308;2023-12-20T09:37:27;6.10;99.90
12557;DHT22;6344;49.932;8.308;2023-12-20T09:39:54;6.00;99.90
12557;DHT22;6344;49.932;8.308;2023-12-20T09:42:24;6.10;99.90
12557;DHT22;6344;49.932;8.308;2023-12-20T09:44:51;6.10;99.90
12557;DHT22;6344;49.932;8.308;2023-12-20T09:47:20;6.10;99.90
12557;DHT22;6344;49.932;8.308;2023-12-20T09:49:51;6.10;99.90
12557;DHT22;6344;49.932;8.308;2023-12-20T09:52:18;6.20;99.90
12557;DHT22;6344;49.932;8.308;2023-12-20T09:54:45;6.20;99.90
12557;DHT22;6344;49.932;8.308;2023-12-20T09:57:14;6.30;99.90
12557;DHT22;6344;49.932;8.308;2023-12-20T09:59:40;6.30;99.90
12557;DHT22;6344;49.932;8.308;2023-12-20T10:02:12;6.40;99.90
12557;DHT22;6344;49.932;8.308;2023-12-20T10:04:44;6.40;99.90
12557;DHT22;6344;49.932;8.308;2023-12-20T10:07:14;6.60;99.90
12557;DHT22;6344;49.932;8.308;2023-12-20T10:09:41;6.70;99.90
12557;DHT22;6344;49.932;8.308;2023-12-20T10:12:08;6.90;99.90
12557;DHT22;6344;49.932;8.308;2023-12-20T10:14:34;7.20;99.90
12557;DHT22;6344;49.932;8.308;2023-12-20T10:17:02;7.30;99.90
12557;DHT22;6344;49.932;8.308;2023-12-20T10:19:29;7.30;99.90
12557;DHT22;6344;49.932;8.308;2023-12-20T10:21:56;7.40;99.90
12557;DHT22;6344;49.932;8.308;2023-12-20T10:24:28;7.40;99.90
12557;DHT22;6344;49.932;8.308;2023-12-20T10:27:01;7.40;99.90
12557;DHT22;6344;49.932;8.308;2023-12-20T10:29:32;7.20;99.90
12557;DHT22;6344;49.932;8.308;2023-12-20T10:31:58;7.10;99.90
12557;DHT22;6344;49.932;8.308;2023-12-20T10:34:25;7.00;99.90
12557;DHT22;6344;49.932;8.308;2023-12-20T10:36:52;7.20;99.90
12557;DHT22;6344;49.932;8.308;2023-12-20T10:39:19;7.50;99.90
12557;DHT22;6344;49.932;8.308;2023-12-20T10:41:48;8.10;99.90
12557;DHT22;6344;49.932;8.308;2023-12-20T10:44:15;8.30;99.90
12557;DHT22;6344;49.932;8.308;2023-12-20T10:46:42;8.40;99.90
12557;DHT22;6344;49.932;8.308;2023-12-20T10:49:16;8.50;99.90
12557;DHT22;6344;49.932;8.308;2023-12-20T11:01:38;8.50;99.90
12557;DHT22;6344;49.932;8.308;2023-12-20T11:04:06;8.60;99.90
12557;DHT22;6344;49.932;8.308;2023-12-20T11:06:40;8.10;99.90
12557;DHT22;6344;49.932;8.308;2023-12-20T11:09:13;8.30;99.90
12557;DHT22;6344;49.932;8.308;2023-12-20T11:11:59;8.50;99.90
12557;DHT22;6344;49.932;8.308;2023-12-20T11:14:31;8.50;99.90
12557;DHT22;6344;49.932;8.308;2023-12-20T11:17:07;8.60;99.90
12557;DHT22;6344;49.932;8.308;2023-12-20T11:19:36;8.80;99.90
12557;DHT22;6344;49.932;8.308;2023-12-20T11:22:04;8.80;99.90
12557;DHT22;6344;49.932;8.308;2023-12-20T11:24:31;8.60;99.90
12557;DHT22;6344;49.932;8.308;2023-12-20T11:27:00;8.60;99.90
12557;DHT22;6344;49.932;8.308;2023-12-20T11:29:36;8.80;99.90
12557;DHT22;6344;49.932;8.308;2023-12-20T11:32:04;8.50;99.90
12557;DHT22;6344;49.932;8.308;2023-12-20T11:34:51;8.50;99.90
12557;DHT22;6344;49.932;8.308;2023-12-20T11:37:20;8.80;99.90
12557;DHT22;6344;49.932;8.308;2023-12-20T11:39:54;8.30;99.90
12557;DHT22;6344;49.932;8.308;2023-12-20T11:42:21;8.10;99.90
12557;DHT22;6344;49.932;8.308;2023-12-20T11:44:50;7.80;99.90
12557;DHT22;6344;49.932;8.308;2023-12-20T11:47:18;7.70;99.90
12557;DHT22;6344;49.932;8.308;2023-12-20T11:49:47;7.60;99.90
12557;DHT22;6344;49.932;8.308;2023-12-20T11:52:13;7.60;99.90
12557;DHT22;6344;49.932;8.308;2023-12-20T11:54:40;7.60;99.90
12557;DHT22;6344;49.932;8.308;2023-12-20T11:57:07;7.50;99.90
12557;DHT22;6344;49.932;8.308;2023-12-20T11:59:33;7.50;99.90
12557;DHT22;6344;49.932;8.308;2023-12-20T12:02:01;7.30;99.90
12557;DHT22;6344;49.932;8.308;2023-12-20T12:04:28;7.30;99.90
12557;DHT22;6344;49.932;8.308;2023-12-20T12:06:55;7.40;99.90
12557;DHT22;6344;49.932;8.308;2023-12-20T12:09:22;7.30;99.90
12557;DHT22;6344;49.932;8.308;2023-12-20T12:11:49;7.30;99.90
12557;DHT22;6344;49.932;8.308;2023-12-20T12:14:15;7.30;99.90
12557;DHT22;6344;49.932;8.308;2023-12-20T12:16:42;7.80;99.90
12557;DHT22;6344;49.932;8.308;2023-12-20T12:19:21;8.50;99.90
12557;DHT22;6344;49.932;8.308;2023-12-20T12:21:48;8.50;99.90
12557;DHT22;6344;49.932;8.308;2023-12-20T12:24:19;8.60;99.90
12557;DHT22;6344;49.932;8.308;2023-12-20T12:26:50;8.60;99.90
12557;DHT22;6344;49.932;8.308;2023-12-20T12:29:16;8.00;99.90
12557;DHT22;6344;49.932;8.308;2023-12-20T12:31:43;7.80;99.90
12557;DHT22;6344;49.932;8.308;2023-12-20T12:34:10;7.80;99.90
12557;DHT22;6344;49.932;8.308;2023-12-20T12:36:38;7.70;99.90
12557;DHT22;6344;49.932;8.308;2023-12-20T12:39:05;7.50;99.90
12557;DHT22;6344;49.932;8.308;2023-12-20T12:41:32;7.40;99.90
12557;DHT22;6344;49.932;8.308;2023-12-20T12:43:59;7.50;99.90
12557;DHT22;6344;49.932;8.308;2023-12-20T12:46:25;7.60;99.90
12557;DHT22;6344;49.932;8.308;2023-12-20T12:48:52;7.60;99.90
12557;DHT22;6344;49.932;8.308;2023-12-20T12:51:19;7.70;99.90
12557;DHT22;6344;49.932;8.308;2023-12-20T12:53:47;7.50;99.90
12557;DHT22;6344;49.932;8.308;2023-12-20T12:56:15;7.70;99.90
12557;DHT22;6344;49.932;8.308;2023-12-20T12:58:42;7.80;99.90
12557;DHT22;6344;49.932;8.308;2023-12-20T13:01:09;8.10;99.90
12557;DHT22;6344;49.932;8.308;2023-12-20T13:03:35;8.20;99.90
12557;DHT22;6344;49.932;8.308;2023-12-20T13:06:03;8.30;99.90
12557;DHT22;6344;49.932;8.308;2023-12-20T13:08:31;8.40;99.90
12557;DHT22;6344;49.932;8.308;2023-12-20T13:10:59;8.50;99.90
12557;DHT22;6344;49.932;8.308;2023-12-20T13:13:26;8.60;99.90
12557;DHT22;6344;49.932;8.308;2023-12-20T13:15:53;8.80;99.90
12557;DHT22;6344;49.932;8.308;2023-12-20T13:18:20;8.70;99.90
12557;DHT22;6344;49.932;8.308;2023-12-20T13:20:47;8.70;99.90
12557;DHT22;6344;49.932;8.308;2023-12-20T13:23:14;8.80;99.90
12557;DHT22;6344;49.932;8.308;2023-12-20T13:25:41;8.90;99.90
12557;DHT22;6344;49.932;8.308;2023-12-20T13:28:09;8.80;99.90
12557;DHT22;6344;49.932;8.308;2023-12-20T13:30:36;8.90;99.90
12557;DHT22;6344;49.932;8.308;2023-12-20T13:33:02;8.90;99.90
12557;DHT22;6344;49.932;8.308;2023-12-20T13:35:29;9.20;99.90
12557;DHT22;6344;49.932;8.308;2023-12-20T13:37:56;9.00;99.90
12557;DHT22;6344;49.932;8.308;2023-12-20T13:40:22;9.30;99.90
12557;DHT22;6344;49.932;8.308;2023-12-20T13:42:49;9.00;99.90
12557;DHT22;6344;49.932;8.308;2023-12-20T13:45:17;8.60;99.90
12557;DHT22;6344;49.932;8.308;2023-12-20T13:47:44;8.40;99.90
12557;DHT22;6344;49.932;8.308;2023-12-20T13:50:10;8.90;99.90
12557;DHT22;6344;49.932;8.308;2023-12-20T13:52:38;8.60;99.90
12557;DHT22;6344;49.932;8.308;2023-12-20T13:55:05;8.60;99.90
12557;DHT22;6344;49.932;8.308;2023-12-20T13:57:33;8.40;99.90
12557;DHT22;6344;49.932;8.308;2023-12-20T14:00:03;8.20;99.90
12557;DHT22;6344;49.932;8.308;2023-12-20T14:02:31;8.20;99.90
12557;DHT22;6344;49.932;8.308;2023-12-20T14:04:58;8.00;99.90
12557;DHT22;6344;49.932;8.308;2023-12-20T14:07:24;7.80;99.90
12557;DHT22;6344;49.932;8.308;2023-12-20T14:09:51;7.90;99.90
12557;DHT22;6344;49.932;8.308;2023-12-20T14:12:18;7.80;99.90
12557;DHT22;6344;49.932;8.308;2023-12-20T14:14:45;7.80;99.90
12557;DHT22;6344;49.932;8.308;2023-12-20T14:17:12;7.80;99.90
12557;DHT22;6344;49.932;8.308;2023-12-20T14:19:40;7.80;99.90
12557;DHT22;6344;49.932;8.308;2023-12-20T14:22:06;7.70;99.90
12557;DHT22;6344;49.932;8.308;2023-12-20T14:24:34;7.60;99.90
12557;DHT22;6344;49.932;8.308;2023-12-20T14:27:01;7.50;99.90
12557;DHT22;6344;49.932;8.308;2023-12-20T14:29:27;7.50;99.90
12557;DHT22;6344;49.932;8.308;2023-12-20T14:31:54;7.50;99.90
12557;DHT22;6344;49.932;8.308;2023-12-20T14:34:21;7.60;99.90
12557;DHT22;6344;49.932;8.308;2023-12-20T14:36:50;7.60;99.90
12557;DHT22;6344;49.932;8.308;2023-12-20T14:39:17;7.60;99.90
12557;DHT22;6344;49.932;8.308;2023-12-20T14:41:44;7.50;99.90
12557;DHT22;6344;49.932;8.308;2023-12-20T14:44:11;7.40;99.90
12557;DHT22;6344;49.932;8.308;2023-12-20T14:46:37;7.40;99.90
12557;DHT22;6344;49.932;8.308;2023-12-20T14:49:05;7.40;99.90
12557;DHT22;6344;49.932;8.308;2023-12-20T14:51:31;7.40;99.90
12557;DHT22;6344;49.932;8.308;2023-12-20T14:54:00;7.40;99.90
12557;DHT22;6344;49.932;8.308;2023-12-20T14:56:27;7.40;99.90
12557;DHT22;6344;49.932;8.308;2023-12-20T14:58:54;7.30;99.90
12557;DHT22;6344;49.932;8.308;2023-12-20T15:01:20;7.30;99.90
12557;DHT22;6344;49.932;8.308;2023-12-20T15:03:47;7.20;99.90
12557;DHT22;6344;49.932;8.308;2023-12-20T15:06:14;7.20;99.90
12557;DHT22;6344;49.932;8.308;2023-12-20T15:08:40;7.20;99.90
12557;DHT22;6344;49.932;8.308;2023-12-20T15:11:09;7.20;99.90
12557;DHT22;6344;49.932;8.308;2023-12-20T15:13:35;7.10;99.90
12557;DHT22;6344;49.932;8.308;2023-12-20T15:16:02;7.10;99.90
12557;DHT22;6344;49.932;8.308;2023-12-20T15:18:30;7.00;99.90
12557;DHT22;6344;49.932;8.308;2023-12-20T15:20:57;7.00;99.90
12557;DHT22;6344;49.932;8.308;2023-12-20T15:23:25;6.90;99.90
12557;DHT22;6344;49.932;8.308;2023-12-20T15:25:54;6.90;99.90
12557;DHT22;6344;49.932;8.308;2023-12-20T15:28:22;6.90;99.90
12557;DHT22;6344;49.932;8.308;2023-12-20T15:30:49;6.90;99.90
12557;DHT22;6344;49.932;8.308;2023-12-20T15:33:15;6.90;99.90
12557;DHT22;6344;49.932;8.308;2023-12-20T15:35:42;6.90;99.90
12557;DHT22;6344;49.932;8.308;2023-12-20T15:38:08;6.90;99.90
12557;DHT22;6344;49.932;8.308;2023-12-20T15:40:35;6.80;99.90
12557;DHT22;6344;49.932;8.308;2023-12-20T15:43:02;6.80;99.90
12557;DHT22;6344;49.932;8.308;2023-12-20T15:45:30;6.80;99.90
12557;DHT22;6344;49.932;8.308;2023-12-20T15:47:56;6.80;99.90
12557;DHT22;6344;49.932;8.308;2023-12-20T15:50:23;6.80;99.90
12557;DHT22;6344;49.932;8.308;2023-12-20T15:52:50;6.80;99.90
12557;DHT22;6344;49.932;8.308;2023-12-20T15:55:16;6.80;99.90
12557;DHT22;6344;49.932;8.308;2023-12-20T15:57:43;6.70;99.90
12557;DHT22;6344;49.932;8.308;2023-12-20T16:00:10;6.70;99.90
12557;DHT22;6344;49.932;8.308;2023-12-20T16:02:38;6.70;99.90
12557;DHT22;6344;49.932;8.308;2023-12-20T16:05:05;6.60;99.90
12557;DHT22;6344;49.932;8.308;2023-12-20T16:07:33;6.70;99.90
12557;DHT22;6344;49.932;8.308;2023-12-20T16:09:59;6.70;99.90
12557;DHT22;6344;49.932;8.308;2023-12-20T16:12:26;6.60;99.90
12557;DHT22;6344;49.932;8.308;2023-12-20T16:14:53;6.60;99.90